Redwood City, CA

9:32 AM PDT on October 02, 2014 (GMT -0700)
San Carlos | Change Station
CLOSE
Current Station
Airport
Location: San Carlos,
Elevation: 3 ft
Nearby Weather Stations
Active Advisory: Heat Advisory

Elev 3 ft 37.51 °N, 122.25 °W | Updated 43 minutes ago

Clear
Clear
64 °F
Feels Like 64 °F
N
0
Wind Variable Wind from North

Today
High -- | Low -- °F
--% Chance of Precip.
Yesterday
High -- | Low -- °F
Precip. -- in
7:05 AM 6:50 PM
First Quarter, 60% visible
Pressure 30.04 in
Visibility 10.0 miles
Clouds Clear
Dew Point 46 °F
Humidity 52%
Rainfall 0.00 in
Snow Depth 1 in , 0 in , 1 in
UV 1 out of 12
Pollen 3.90 out of 12
Ozone Good
PM2.5 Good
Flu Activity Not available.
METAR KSQL 021549Z 00000KT 10SM SKC 18/08 A3004

More Conditions Fewer Conditions

Pressure 30.04 in
Visibility 10.0 miles
Clouds Clear
Dew Point 46 °F
Humidity 52%
Rainfall 0.00 in
Snow Depth 1 in , 0 in , 1 in
UV 1 out of 12
Pollen 3.90 out of 12
Ozone Good
PM2.5 Good
Flu Activity Not available.
METAR KSQL 021549Z 00000KT 10SM SKC 18/08 A3004

More Conditions Fewer Conditions

10-Day Weather Forecast

Almanac

Astronomy

Oct. 02, 2014 Rise Set
Actual Time 7:05 AM PDT 6:50 PM PDT
Civil Twilight 6:39 AM PDT 7:16 PM PDT
Nautical Twilight 6:09 AM PDT 7:46 PM PDT
Astronomical Twilight 5:38 AM PDT 8:17 PM PDT
Moon 2:55 PM PDT 12:34 AM PDT
Length of Visible Light 12h 37m
Length of Day
11h 45m
Tomorrow will be 2m 22s shorter.
First Quarter, 60% of the Moon is Illuminated
Today
First Quarter
Oct 8
Full
Oct 15
Last Quarter
Oct 23
New
Oct 30
First Quarter

Today's Extremes

State Highs State Lows

Community

WunderPhotos

Upload Photos

1,758,294 photos uploaded!

WunderBlogs® & News

Nearby

Air Quality

  Air Quality AQ Index Pollutant
Yesterday Good
OZONE
Yesterday Good
PM2.5
Current Good
PM2.5
Current Good
OZONE
Thursday Moderate
OZONE
Friday Moderate
NO2
Saturday Moderate
PM2.5
Sunday Moderate
PM2.5
Monday Moderate
PM2.5

Snow Depth

Station Depth Elevation
Spratt Creek 1 in 6200 ft
Independence Camp 0 in 7000 ft
Sonora Pass 1 in 8800 ft
Heavenly Valley 0 in 8850 ft
Truckee #2 0 in 6400 ft

Earthquake Activity

City Distance Mag. Time & Date
South Dos Palos, California 98 miles 3.0 11:17 AM PDT
2014-10-01
Shandon, California 159 miles 2.9 5:34 PM PDT
2014-09-30
East Foothills, California 25 miles 2.6 3:34 PM PDT
2014-09-30
South Dos Palos, California 98 miles 2.7 3:08 PM PDT
2014-09-30
Minimum magnitude displayed is 2.5.

Coastal Water Temperatures

Place Temperature
No Stations Reporting

Nearby Weather Stations